Time;durP1;ratioP1;P1;durP2;ratioP2;P2;SDS_P1;SDS_P2;PMS_P1;PMS_P2;Temp;Humidity;BMP_temperature;BMP_pressure;BME280_temperature;BME280_humidity;BME280_pressure;Samples;Min_cycle;Max_cycle;Signal;HPM_P1;HPM_P2
2021/10/10 00:00:33;;;;;;;4.85;4.13;;;;;;;;;;5084359;28;20039;-62
2021/10/10 00:02:58;;;;;;;5.32;4.18;;;;;;;;;;5085937;28;20464;-62
2021/10/10 00:05:24;;;;;;;4.93;3.58;;;;;;;;;;5090396;28;20028;-62
2021/10/10 00:07:49;;;;;;;6.57;4.95;;;;;;;;;;5092504;28;20123;-62
2021/10/10 00:10:15;;;;;;;7.55;4.70;;;;;;;;;;5093118;28;20032;-62
2021/10/10 00:12:42;;;;;;;6.88;4.82;;;;;;;;;;5086427;28;20042;-62
2021/10/10 00:15:10;;;;;;;7.07;4.55;;;;;;;;;;5092128;28;20565;-62
2021/10/10 00:17:36;;;;;;;5.18;3.97;;;;;;;;;;5091793;28;20055;-62
2021/10/10 00:20:04;;;;;;;4.50;4.03;;;;;;;;;;5090104;28;20457;-62
2021/10/10 00:22:29;;;;;;;7.38;4.22;;;;;;;;;;5091433;28;20136;-62
2021/10/10 00:24:54;;;;;;;5.00;4.10;;;;;;;;;;5090706;28;20446;-62
2021/10/10 00:27:21;;;;;;;5.80;4.18;;;;;;;;;;5089827;28;20115;-63
2021/10/10 00:29:47;;;;;;;3.83;3.13;;;;;;;;;;5093022;28;20115;-63
2021/10/10 00:32:12;;;;;;;5.32;4.38;;;;;;;;;;5089802;28;20132;-63
2021/10/10 00:34:37;;;;;;;11.02;4.40;;;;;;;;;;5092506;28;20046;-62
2021/10/10 00:37:03;;;;;;;5.68;4.35;;;;;;;;;;5094160;28;20032;-62
2021/10/10 00:39:28;;;;;;;6.38;4.72;;;;;;;;;;5091799;28;20509;-62
2021/10/10 00:41:54;;;;;;;5.45;4.72;;;;;;;;;;5092861;28;20104;-62
2021/10/10 00:44:19;;;;;;;6.45;4.40;;;;;;;;;;5093662;28;20103;-62
2021/10/10 00:46:44;;;;;;;6.35;4.53;;;;;;;;;;5090291;28;20020;-62
2021/10/10 00:49:10;;;;;;;4.55;3.38;;;;;;;;;;5089824;28;20032;-62
2021/10/10 00:51:38;;;;;;;6.50;3.80;;;;;;;;;;5092872;28;20038;-61
2021/10/10 00:54:06;;;;;;;5.30;4.30;;;;;;;;;;5093973;28;20036;-62
2021/10/10 00:56:32;;;;;;;6.38;4.28;;;;;;;;;;5092515;28;20039;-62
2021/10/10 00:59:00;;;;;;;10.43;4.50;;;;;;;;;;5094570;28;20061;-62
2021/10/10 01:01:26;;;;;;;4.53;3.85;;;;;;;;;;5093336;28;20468;-62
2021/10/10 01:03:52;;;;;;;8.98;5.10;;;;;;;;;;5090717;28;20033;-62
2021/10/10 01:06:17;;;;;;;5.13;3.88;;;;;;;;;;5090386;28;20028;-61
2021/10/10 01:08:43;;;;;;;4.65;3.00;;;;;;;;;;5085017;28;20071;-61
2021/10/10 01:11:10;;;;;;;5.72;4.35;;;;;;;;;;5090366;28;20100;-61
2021/10/10 01:13:36;;;;;;;8.07;4.63;;;;;;;;;;5090283;28;20036;-61
2021/10/10 01:16:02;;;;;;;5.80;3.50;;;;;;;;;;5094471;28;20116;-62
2021/10/10 01:18:27;;;;;;;6.10;4.05;;;;;;;;;;5087848;28;20123;-62
2021/10/10 01:20:54;;;;;;;5.60;4.57;;;;;;;;;;5089583;28;20414;-62
2021/10/10 01:23:20;;;;;;;3.85;3.17;;;;;;;;;;5086617;28;20039;-63
2021/10/10 01:25:46;;;;;;;4.68;3.13;;;;;;;;;;5089647;28;20078;-63
2021/10/10 01:28:11;;;;;;;4.85;4.30;;;;;;;;;;5090013;28;20058;-61
2021/10/10 01:30:37;;;;;;;4.05;3.13;;;;;;;;;;5088240;28;20335;-62
2021/10/10 01:33:06;;;;;;;5.20;3.75;;;;;;;;;;5089679;28;20581;-61
2021/10/10 01:35:32;;;;;;;4.97;3.15;;;;;;;;;;5090024;28;20096;-61
2021/10/10 01:37:57;;;;;;;4.10;3.30;;;;;;;;;;5091204;28;20039;-62
2021/10/10 01:40:23;;;;;;;5.07;3.13;;;;;;;;;;5087391;28;20028;-62
2021/10/10 01:42:48;;;;;;;3.83;2.33;;;;;;;;;;5090625;28;20539;-62
2021/10/10 01:45:15;;;;;;;4.40;3.50;;;;;;;;;;5089890;28;20097;-62
2021/10/10 01:47:41;;;;;;;2.65;2.20;;;;;;;;;;5089881;28;20028;-62
2021/10/10 01:50:07;;;;;;;4.72;3.60;;;;;;;;;;5087191;28;20401;-62
2021/10/10 01:52:33;;;;;;;12.40;3.78;;;;;;;;;;5092805;28;20028;-62
2021/10/10 01:54:58;;;;;;;4.18;3.20;;;;;;;;;;5089302;28;20092;-62
2021/10/10 01:57:24;;;;;;;5.43;4.10;;;;;;;;;;5090294;28;20087;-62
2021/10/10 01:59:49;;;;;;;4.57;3.25;;;;;;;;;;5087851;28;20037;-62
2021/10/10 02:02:14;;;;;;;3.70;2.90;;;;;;;;;;5085230;28;20105;-62
2021/10/10 02:04:40;;;;;;;8.60;3.60;;;;;;;;;;5086030;28;20465;-63
2021/10/10 02:07:05;;;;;;;4.75;3.53;;;;;;;;;;5088830;28;20055;-62
2021/10/10 02:09:30;;;;;;;7.82;4.55;;;;;;;;;;5091161;28;20032;-62
2021/10/10 02:11:56;;;;;;;6.93;4.47;;;;;;;;;;5087568;28;20118;-60
2021/10/10 02:14:21;;;;;;;4.80;3.50;;;;;;;;;;5087795;28;20048;-61
2021/10/10 02:16:46;;;;;;;5.50;3.65;;;;;;;;;;5092559;28;20071;-61
2021/10/10 02:19:12;;;;;;;4.28;3.55;;;;;;;;;;5096141;28;20032;-61
2021/10/10 02:21:37;;;;;;;4.25;3.58;;;;;;;;;;5090228;28;20028;-61
2021/10/10 02:24:03;;;;;;;3.65;3.03;;;;;;;;;;5090302;28;20109;-61
2021/10/10 02:26:28;;;;;;;7.80;3.95;;;;;;;;;;5094867;28;20031;-61
2021/10/10 02:28:54;;;;;;;4.85;3.22;;;;;;;;;;5090864;28;20036;-61
2021/10/10 02:31:19;;;;;;;4.55;3.40;;;;;;;;;;5085857;28;20048;-61
2021/10/10 02:33:44;;;;;;;4.07;3.30;;;;;;;;;;5091692;28;20084;-60
2021/10/10 02:36:10;;;;;;;4.97;3.90;;;;;;;;;;5085977;28;20044;-61
2021/10/10 02:38:36;;;;;;;5.63;4.43;;;;;;;;;;5090560;28;20027;-60
2021/10/10 02:41:01;;;;;;;4.72;3.35;;;;;;;;;;5093127;28;20035;-61
2021/10/10 02:43:26;;;;;;;5.03;3.83;;;;;;;;;;5088730;28;20038;-61
2021/10/10 02:45:52;;;;;;;5.90;4.50;;;;;;;;;;5089944;28;20397;-61
2021/10/10 02:48:17;;;;;;;5.43;3.97;;;;;;;;;;5082353;28;20101;-61
2021/10/10 02:50:43;;;;;;;4.95;4.05;;;;;;;;;;5083300;28;20031;-61
2021/10/10 02:53:08;;;;;;;4.40;3.58;;;;;;;;;;5095476;28;20030;-61
2021/10/10 02:55:33;;;;;;;5.47;3.70;;;;;;;;;;5085118;28;20468;-61
2021/10/10 02:57:59;;;;;;;7.78;5.03;;;;;;;;;;5085085;28;20046;-61
2021/10/10 03:00:24;;;;;;;5.38;4.75;;;;;;;;;;5084272;28;20028;-61
2021/10/10 03:02:50;;;;;;;4.38;3.13;;;;;;;;;;5082367;28;20039;-61
2021/10/10 03:05:15;;;;;;;7.13;4.57;;;;;;;;;;5085860;28;20448;-61
2021/10/10 03:07:40;;;;;;;7.38;4.03;;;;;;;;;;5087218;28;20105;-61
2021/10/10 03:10:06;;;;;;;4.32;3.85;;;;;;;;;;5083129;28;20054;-61
2021/10/10 03:12:32;;;;;;;4.88;4.03;;;;;;;;;;5082325;28;20024;-61
2021/10/10 03:14:57;;;;;;;6.78;4.25;;;;;;;;;;5090913;28;20055;-61
2021/10/10 03:17:23;;;;;;;4.35;3.50;;;;;;;;;;5086239;28;20376;-61
2021/10/10 03:19:48;;;;;;;4.68;3.58;;;;;;;;;;5089023;28;20024;-62
2021/10/10 03:22:13;;;;;;;6.07;4.65;;;;;;;;;;5086555;28;20028;-62
2021/10/10 03:24:39;;;;;;;6.28;4.00;;;;;;;;;;5087391;28;20027;-62
2021/10/10 03:27:04;;;;;;;12.27;4.65;;;;;;;;;;5091626;28;20028;-62
2021/10/10 03:29:29;;;;;;;6.20;5.07;;;;;;;;;;5085536;28;20060;-61
2021/10/10 03:31:55;;;;;;;4.95;4.03;;;;;;;;;;5087127;28;20041;-61
2021/10/10 03:34:20;;;;;;;4.85;4.18;;;;;;;;;;5088353;28;20102;-61
2021/10/10 03:36:46;;;;;;;4.82;3.92;;;;;;;;;;5087980;28;20035;-61
2021/10/10 03:39:11;;;;;;;7.90;4.30;;;;;;;;;;5085865;28;20039;-61
2021/10/10 03:41:36;;;;;;;6.22;4.82;;;;;;;;;;5087213;28;20036;-60
2021/10/10 03:44:02;;;;;;;4.75;3.03;;;;;;;;;;5094413;28;20419;-61
2021/10/10 03:46:27;;;;;;;8.93;4.25;;;;;;;;;;5093055;28;20111;-61
2021/10/10 03:48:53;;;;;;;6.55;4.05;;;;;;;;;;5086764;28;20104;-61
2021/10/10 03:51:18;;;;;;;5.82;4.57;;;;;;;;;;5087090;28;20032;-61
2021/10/10 03:56:28;;;;;;;3.97;3.00;;;;;;;;;;5093748;28;20146;-61
2021/10/10 03:58:53;;;;;;;4.57;4.00;;;;;;;;;;5093577;28;20111;-61
2021/10/10 04:01:19;;;;;;;5.97;3.75;;;;;;;;;;5091590;28;20026;-61
2021/10/10 04:03:44;;;;;;;6.50;4.25;;;;;;;;;;5091026;28;20410;-61
2021/10/10 04:06:10;;;;;;;5.05;4.05;;;;;;;;;;5093129;28;20107;-60
2021/10/10 04:08:41;;;;;;;6.47;3.80;;;;;;;;;;5092599;28;20032;-60
2021/10/10 04:11:07;;;;;;;4.78;4.18;;;;;;;;;;5090813;28;20085;-61
2021/10/10 04:13:32;;;;;;;4.30;3.47;;;;;;;;;;5088412;28;20024;-62
2021/10/10 04:15:57;;;;;;;6.07;4.35;;;;;;;;;;5091826;28;20548;-62
2021/10/10 04:18:23;;;;;;;6.57;4.38;;;;;;;;;;5091749;28;20035;-62
2021/10/10 04:20:48;;;;;;;4.45;3.50;;;;;;;;;;5089558;28;20042;-62
2021/10/10 04:23:13;;;;;;;5.97;3.58;;;;;;;;;;5090338;28;20039;-62
2021/10/10 04:25:39;;;;;;;5.75;4.15;;;;;;;;;;5092738;28;20039;-62
2021/10/10 04:28:04;;;;;;;7.55;4.85;;;;;;;;;;5093689;28;20032;-62
2021/10/10 04:30:30;;;;;;;8.05;4.53;;;;;;;;;;5088055;28;20028;-62
2021/10/10 04:32:55;;;;;;;6.55;5.13;;;;;;;;;;5087247;28;20516;-62
2021/10/10 04:35:20;;;;;;;4.50;3.78;;;;;;;;;;5093698;28;20473;-62
2021/10/10 04:37:46;;;;;;;4.70;4.13;;;;;;;;;;5093220;28;20024;-62
2021/10/10 04:40:11;;;;;;;5.70;4.60;;;;;;;;;;5094085;28;20037;-62
2021/10/10 04:42:38;;;;;;;6.65;5.38;;;;;;;;;;5092688;28;20019;-62
2021/10/10 04:45:05;;;;;;;5.10;4.10;;;;;;;;;;5090334;28;20432;-62
2021/10/10 04:47:30;;;;;;;6.47;3.58;;;;;;;;;;5089240;28;20028;-62
2021/10/10 04:49:55;;;;;;;3.80;2.88;;;;;;;;;;5094292;28;20056;-62
2021/10/10 04:52:21;;;;;;;5.70;4.78;;;;;;;;;;5091876;28;20024;-62
2021/10/10 04:54:47;;;;;;;6.63;4.95;;;;;;;;;;5083776;28;20177;-62
2021/10/10 04:57:14;;;;;;;5.07;4.15;;;;;;;;;;5090023;28;20037;-62
2021/10/10 04:59:40;;;;;;;5.95;4.47;;;;;;;;;;5088900;28;20020;-62
2021/10/10 05:02:06;;;;;;;11.20;4.10;;;;;;;;;;5089950;28;20032;-62
2021/10/10 05:04:31;;;;;;;9.13;4.10;;;;;;;;;;5089646;28;20036;-62
2021/10/10 05:06:56;;;;;;;7.07;5.70;;;;;;;;;;5091938;28;20090;-62
2021/10/10 05:09:22;;;;;;;9.02;4.65;;;;;;;;;;5088894;28;20040;-62
2021/10/10 05:11:47;;;;;;;6.00;4.43;;;;;;;;;;5090774;28;20441;-62
2021/10/10 05:14:12;;;;;;;6.15;4.55;;;;;;;;;;5092181;28;20111;-62
2021/10/10 05:16:38;;;;;;;6.05;4.57;;;;;;;;;;5090388;28;20050;-62
2021/10/10 05:19:03;;;;;;;6.53;4.78;;;;;;;;;;5090910;28;20031;-62
2021/10/10 05:21:29;;;;;;;6.22;4.75;;;;;;;;;;5091892;28;20032;-62
2021/10/10 05:23:54;;;;;;;9.45;4.78;;;;;;;;;;5093579;28;20464;-62
2021/10/10 05:26:19;;;;;;;6.20;4.15;;;;;;;;;;5088678;28;20032;-62
2021/10/10 05:28:45;;;;;;;5.82;4.53;;;;;;;;;;5090718;28;20024;-62
2021/10/10 05:31:10;;;;;;;4.97;3.95;;;;;;;;;;5089704;28;20036;-61
2021/10/10 05:33:35;;;;;;;5.45;3.90;;;;;;;;;;5087539;28;20719;-62
2021/10/10 05:36:01;;;;;;;7.57;5.32;;;;;;;;;;5088753;28;20028;-62
2021/10/10 05:38:27;;;;;;;8.52;4.75;;;;;;;;;;5092871;28;20031;-62
2021/10/10 05:40:53;;;;;;;6.95;4.80;;;;;;;;;;5087163;28;20032;-62
2021/10/10 05:43:19;;;;;;;6.20;3.78;;;;;;;;;;5091183;28;20062;-63
2021/10/10 05:45:44;;;;;;;8.35;5.85;;;;;;;;;;5084408;28;20124;-62
2021/10/10 05:48:09;;;;;;;10.38;4.82;;;;;;;;;;5089354;28;20107;-63
2021/10/10 05:50:35;;;;;;;4.70;3.92;;;;;;;;;;5085513;28;20416;-62
2021/10/10 05:53:07;;;;;;;14.35;4.13;;;;;;;;;;5088015;28;20043;-62
2021/10/10 05:55:34;;;;;;;5.25;3.72;;;;;;;;;;5087615;28;20059;-62
2021/10/10 05:58:03;;;;;;;5.25;4.70;;;;;;;;;;5087573;28;20040;-62
2021/10/10 06:00:29;;;;;;;7.53;4.40;;;;;;;;;;5089467;28;20139;-63
2021/10/10 06:02:54;;;;;;;13.02;4.28;;;;;;;;;;5085843;28;20104;-62
2021/10/10 06:05:20;;;;;;;4.50;3.88;;;;;;;;;;5087254;28;20035;-62
2021/10/10 06:07:45;;;;;;;9.20;4.18;;;;;;;;;;5089101;28;20024;-62
2021/10/10 06:10:11;;;;;;;8.70;5.40;;;;;;;;;;5086840;28;20042;-62
2021/10/10 06:12:38;;;;;;;5.93;4.63;;;;;;;;;;5087966;28;20054;-62
2021/10/10 06:15:06;;;;;;;6.07;4.15;;;;;;;;;;5089872;28;20477;-62
2021/10/10 06:17:32;;;;;;;4.78;3.55;;;;;;;;;;5082212;28;20142;-63
2021/10/10 06:19:58;;;;;;;4.82;3.85;;;;;;;;;;5090551;28;20079;-62
2021/10/10 06:22:23;;;;;;;9.65;4.22;;;;;;;;;;5091890;28;20050;-62
2021/10/10 06:24:49;;;;;;;5.68;4.40;;;;;;;;;;5084193;28;20016;-61
2021/10/10 06:27:17;;;;;;;7.88;6.93;;;;;;;;;;5076407;28;20092;-62
2021/10/10 06:29:43;;;;;;;5.93;4.88;;;;;;;;;;5087571;28;20042;-62
2021/10/10 06:32:08;;;;;;;6.47;4.05;;;;;;;;;;5088407;28;20036;-62
2021/10/10 06:34:34;;;;;;;8.15;4.50;;;;;;;;;;5086064;28;20085;-62
2021/10/10 06:37:00;;;;;;;5.45;4.30;;;;;;;;;;5087903;28;20107;-62
2021/10/10 06:39:25;;;;;;;7.18;4.32;;;;;;;;;;5084804;28;20039;-62
2021/10/10 06:41:51;;;;;;;6.45;5.57;;;;;;;;;;5087038;28;20385;-62
2021/10/10 06:44:17;;;;;;;6.85;5.35;;;;;;;;;;5086545;28;20035;-62
2021/10/10 06:46:44;;;;;;;7.13;5.18;;;;;;;;;;5085231;28;20054;-62
2021/10/10 06:49:10;;;;;;;5.57;3.88;;;;;;;;;;5086993;28;20046;-62
2021/10/10 06:51:35;;;;;;;7.43;5.97;;;;;;;;;;5088811;28;20161;-62
2021/10/10 06:54:01;;;;;;;4.72;3.95;;;;;;;;;;5088884;28;20456;-62
2021/10/10 06:56:26;;;;;;;5.50;4.30;;;;;;;;;;5091732;28;20463;-62
2021/10/10 06:58:51;;;;;;;8.13;5.78;;;;;;;;;;5089198;28;20036;-62
2021/10/10 07:01:17;;;;;;;6.40;4.70;;;;;;;;;;5094539;28;20031;-62
2021/10/10 07:03:42;;;;;;;6.13;4.63;;;;;;;;;;5088173;28;20031;-61
2021/10/10 07:06:08;;;;;;;6.15;4.90;;;;;;;;;;5088765;28;20416;-62
2021/10/10 07:08:34;;;;;;;3.00;2.58;;;;;;;;;;5087156;28;20036;-62
2021/10/10 07:10:59;;;;;;;4.10;3.65;;;;;;;;;;5091541;28;20047;-62
2021/10/10 07:13:24;;;;;;;5.95;3.85;;;;;;;;;;5084002;28;20117;-62
2021/10/10 07:15:50;;;;;;;5.05;4.20;;;;;;;;;;5086743;28;20032;-62
2021/10/10 07:18:24;;;;;;;4.70;3.63;;;;;;;;;;5082545;28;20050;-62
2021/10/10 07:26:19;;;;;;;10.40;4.18;;;;;;;;;;5092715;28;20056;-62
2021/10/10 07:28:44;;;;;;;7.20;4.30;;;;;;;;;;5088062;28;20095;-61
2021/10/10 07:31:10;;;;;;;5.00;4.28;;;;;;;;;;5090004;28;20542;-62
2021/10/10 07:33:35;;;;;;;5.68;3.38;;;;;;;;;;5083336;28;20089;-62
2021/10/10 07:36:01;;;;;;;5.15;3.75;;;;;;;;;;5086771;28;20036;-62
2021/10/10 07:38:27;;;;;;;6.07;3.88;;;;;;;;;;5084505;28;20567;-61
2021/10/10 07:40:52;;;;;;;8.82;3.38;;;;;;;;;;5086812;28;20055;-62
2021/10/10 07:43:17;;;;;;;5.15;3.72;;;;;;;;;;5083638;28;20036;-62
2021/10/10 07:45:43;;;;;;;4.97;3.88;;;;;;;;;;5090573;28;20032;-62
2021/10/10 07:48:10;;;;;;;5.55;4.13;;;;;;;;;;5089161;28;20063;-62
2021/10/10 07:50:35;;;;;;;4.28;3.20;;;;;;;;;;5085935;28;20036;-62
2021/10/10 07:53:02;;;;;;;4.47;2.97;;;;;;;;;;5083798;28;20036;-62
2021/10/10 07:55:28;;;;;;;5.38;4.18;;;;;;;;;;5085701;28;20032;-62
2021/10/10 07:57:53;;;;;;;5.10;3.22;;;;;;;;;;5086310;28;20032;-62
2021/10/10 08:00:19;;;;;;;6.22;4.30;;;;;;;;;;5083843;28;20400;-62
2021/10/10 08:02:55;;;;;;;5.05;3.90;;;;;;;;;;5084673;28;20035;-62
2021/10/10 08:05:22;;;;;;;5.50;3.40;;;;;;;;;;5087633;28;20050;-61
2021/10/10 08:07:48;;;;;;;4.60;3.50;;;;;;;;;;5089489;28;20040;-62
2021/10/10 08:10:13;;;;;;;4.57;3.92;;;;;;;;;;5073599;28;20036;-62
2021/10/10 08:12:39;;;;;;;3.72;2.88;;;;;;;;;;5085963;28;20046;-62
2021/10/10 08:15:05;;;;;;;7.25;3.97;;;;;;;;;;5087933;28;20047;-62
2021/10/10 08:17:31;;;;;;;5.00;3.60;;;;;;;;;;5088201;28;20461;-62
2021/10/10 08:19:56;;;;;;;4.97;4.07;;;;;;;;;;5086612;28;20039;-62
2021/10/10 08:22:23;;;;;;;4.28;3.38;;;;;;;;;;5088549;28;20024;-62
2021/10/10 08:24:48;;;;;;;7.88;3.92;;;;;;;;;;5087216;28;20131;-61
2021/10/10 08:27:14;;;;;;;6.18;3.85;;;;;;;;;;5088413;28;20150;-62
2021/10/10 08:29:39;;;;;;;5.65;3.13;;;;;;;;;;5089927;28;20032;-62
2021/10/10 08:32:05;;;;;;;3.88;3.28;;;;;;;;;;5089428;28;20028;-62
2021/10/10 08:34:30;;;;;;;5.18;3.50;;;;;;;;;;5090509;28;20044;-62
2021/10/10 08:36:55;;;;;;;4.50;3.08;;;;;;;;;;5089244;28;20473;-62
2021/10/10 08:39:27;;;;;;;5.90;4.13;;;;;;;;;;5089158;28;20437;-61
2021/10/10 08:41:57;;;;;;;4.45;3.50;;;;;;;;;;5087861;28;20036;-62
2021/10/10 08:44:31;;;;;;;3.67;3.15;;;;;;;;;;5092981;28;20055;-62
2021/10/10 08:47:06;;;;;;;4.22;3.38;;;;;;;;;;5089477;28;20038;-61
2021/10/10 08:49:31;;;;;;;3.67;2.85;;;;;;;;;;5094011;28;20055;-62
2021/10/10 08:52:01;;;;;;;3.88;2.80;;;;;;;;;;5093090;28;20067;-62
2021/10/10 08:54:27;;;;;;;5.20;3.28;;;;;;;;;;5087004;28;20032;-62
2021/10/10 08:56:52;;;;;;;4.50;3.47;;;;;;;;;;5087182;28;20042;-62
2021/10/10 08:59:20;;;;;;;3.97;3.15;;;;;;;;;;5093374;28;20385;-62
2021/10/10 09:01:48;;;;;;;6.95;3.83;;;;;;;;;;5091606;28;20089;-62
2021/10/10 09:04:14;;;;;;;6.40;3.20;;;;;;;;;;5087869;28;20526;-62
2021/10/10 09:06:43;;;;;;;4.13;3.42;;;;;;;;;;5092102;28;20032;-62
2021/10/10 09:09:28;;;;;;;5.18;3.78;;;;;;;;;;5087062;28;20032;-62
2021/10/10 09:12:05;;;;;;;6.45;4.10;;;;;;;;;;5085936;28;20492;-62
2021/10/10 09:14:45;;;;;;;9.57;4.07;;;;;;;;;;5084729;28;20037;-62
2021/10/10 09:17:12;;;;;;;4.28;3.58;;;;;;;;;;5085122;28;20039;-62
2021/10/10 09:19:37;;;;;;;4.15;3.38;;;;;;;;;;5086855;28;20039;-62
2021/10/10 09:22:06;;;;;;;4.90;3.78;;;;;;;;;;5088759;28;20029;-62
2021/10/10 09:24:35;;;;;;;5.20;3.45;;;;;;;;;;5085025;28;20040;-61
2021/10/10 09:27:05;;;;;;;5.38;3.90;;;;;;;;;;5086731;28;20435;-62
2021/10/10 09:29:38;;;;;;;4.80;3.60;;;;;;;;;;5082644;28;20036;-62
2021/10/10 09:32:19;;;;;;;4.80;3.80;;;;;;;;;;5095272;28;20032;-62
2021/10/10 09:34:47;;;;;;;8.13;3.95;;;;;;;;;;5097094;28;20042;-62
2021/10/10 09:42:42;;;;;;;4.88;3.40;;;;;;;;;;5088269;28;20481;-62
2021/10/10 09:45:27;;;;;;;5.10;4.10;;;;;;;;;;5094029;28;20047;-62
2021/10/10 09:48:00;;;;;;;8.40;4.57;;;;;;;;;;5081153;28;20032;-62
2021/10/10 09:50:29;;;;;;;4.05;3.10;;;;;;;;;;5089249;28;20028;-62
2021/10/10 09:53:08;;;;;;;4.45;3.33;;;;;;;;;;5085982;28;20475;-62
2021/10/10 09:55:36;;;;;;;5.68;3.38;;;;;;;;;;5089822;28;20032;-62
2021/10/10 09:58:02;;;;;;;7.18;4.20;;;;;;;;;;5083483;28;20036;-62
2021/10/10 10:00:31;;;;;;;9.40;3.85;;;;;;;;;;5090076;28;20114;-62
2021/10/10 10:03:01;;;;;;;4.65;3.60;;;;;;;;;;5089130;28;20032;-62
2021/10/10 10:05:29;;;;;;;4.43;3.35;;;;;;;;;;5088149;28;20020;-62
2021/10/10 10:07:55;;;;;;;4.82;3.33;;;;;;;;;;5089345;28;20084;-62
2021/10/10 10:10:22;;;;;;;5.07;3.83;;;;;;;;;;5088467;28;20050;-62
2021/10/10 10:12:50;;;;;;;4.13;3.00;;;;;;;;;;5082320;28;20084;-62
2021/10/10 10:15:17;;;;;;;4.57;3.15;;;;;;;;;;5091243;28;20028;-62
2021/10/10 10:17:43;;;;;;;8.48;3.33;;;;;;;;;;5088765;28;20401;-62
2021/10/10 10:20:09;;;;;;;4.75;3.38;;;;;;;;;;5085493;28;20064;-62
2021/10/10 10:22:36;;;;;;;4.07;3.63;;;;;;;;;;5086104;28;20412;-62
2021/10/10 10:25:04;;;;;;;7.05;4.72;;;;;;;;;;5092392;28;20028;-62
2021/10/10 10:27:30;;;;;;;4.65;3.90;;;;;;;;;;5090316;28;20081;-62
2021/10/10 10:29:59;;;;;;;3.30;2.50;;;;;;;;;;5090924;28;20032;-62
2021/10/10 10:32:28;;;;;;;5.28;3.28;;;;;;;;;;5073426;28;20478;-62
2021/10/10 10:35:14;;;;;;;6.75;4.10;;;;;;;;;;5088800;28;20133;-62
2021/10/10 10:37:43;;;;;;;6.68;3.83;;;;;;;;;;5090665;28;20076;-62
2021/10/10 10:40:15;;;;;;;4.40;3.67;;;;;;;;;;5092490;27;20039;-62
2021/10/10 10:42:42;;;;;;;4.30;3.28;;;;;;;;;;5113029;27;20197;-62
2021/10/10 10:45:28;;;;;;;4.68;3.70;;;;;;;;;;5112138;27;20460;-62
2021/10/10 10:47:57;;;;;;;4.85;3.95;;;;;;;;;;5105791;27;20044;-62
2021/10/10 10:50:28;;;;;;;4.53;3.53;;;;;;;;;;5093886;28;20028;-62
2021/10/10 10:53:03;;;;;;;5.20;3.75;;;;;;;;;;5092433;27;20471;-61
2021/10/10 10:55:44;;;;;;;5.03;3.72;;;;;;;;;;5102699;27;20381;-62
2021/10/10 10:58:12;;;;;;;4.93;3.65;;;;;;;;;;5104629;28;20032;-62
2021/10/10 11:00:40;;;;;;;3.80;2.67;;;;;;;;;;5114666;27;20039;-61
2021/10/10 11:03:24;;;;;;;4.85;3.90;;;;;;;;;;5111448;27;20031;-62
2021/10/10 11:05:54;;;;;;;5.43;3.55;;;;;;;;;;5105551;27;20035;-62
2021/10/10 11:08:22;;;;;;;4.27;3.40;;;;;;;;;;5085402;28;20059;-62
2021/10/10 11:10:59;;;;;;;5.32;3.75;;;;;;;;;;5111381;27;20345;-62
2021/10/10 11:13:27;;;;;;;4.90;3.78;;;;;;;;;;5094024;28;20027;-62
2021/10/10 11:15:56;;;;;;;4.90;4.03;;;;;;;;;;5103814;28;20028;-62
2021/10/10 11:18:27;;;;;;;4.03;3.08;;;;;;;;;;5099633;28;20036;-61
2021/10/10 11:20:54;;;;;;;4.15;3.00;;;;;;;;;;5106423;28;20408;-61
2021/10/10 11:23:21;;;;;;;5.00;3.50;;;;;;;;;;5106662;27;20036;-62
2021/10/10 11:25:50;;;;;;;6.00;3.60;;;;;;;;;;5111015;27;20024;-62
2021/10/10 11:28:19;;;;;;;4.43;3.33;;;;;;;;;;5107097;28;20028;-62
2021/10/10 11:30:45;;;;;;;4.00;3.50;;;;;;;;;;5103134;27;20032;-62
2021/10/10 11:33:13;;;;;;;9.38;3.13;;;;;;;;;;5106105;28;20112;-61
2021/10/10 11:35:42;;;;;;;4.57;3.85;;;;;;;;;;5109608;28;20129;-61
2021/10/10 11:38:09;;;;;;;6.90;3.70;;;;;;;;;;5112087;28;20453;-62
2021/10/10 11:40:56;;;;;;;4.07;3.38;;;;;;;;;;5110960;28;20031;-62
2021/10/10 11:43:23;;;;;;;4.00;3.17;;;;;;;;;;5112736;28;20140;-61
2021/10/10 11:45:58;;;;;;;4.68;3.65;;;;;;;;;;5112900;28;20042;-62
2021/10/10 11:48:37;;;;;;;4.05;3.10;;;;;;;;;;5106588;28;20036;-62
2021/10/10 11:51:03;;;;;;;5.47;3.70;;;;;;;;;;5104812;28;20107;-61
2021/10/10 11:53:44;;;;;;;8.32;4.22;;;;;;;;;;5088095;28;20028;-61
2021/10/10 11:56:09;;;;;;;4.97;3.63;;;;;;;;;;5110933;28;20048;-62
2021/10/10 11:58:35;;;;;;;3.83;3.03;;;;;;;;;;5106489;28;20074;-61
2021/10/10 12:01:11;;;;;;;6.97;4.18;;;;;;;;;;5110960;28;20404;-61
2021/10/10 12:03:45;;;;;;;5.97;2.97;;;;;;;;;;5113727;27;20034;-62
2021/10/10 12:06:19;;;;;;;3.85;2.83;;;;;;;;;;5110839;27;20147;-61
2021/10/10 12:08:45;;;;;;;4.03;2.90;;;;;;;;;;5084231;28;20364;-61
2021/10/10 12:11:10;;;;;;;5.40;3.78;;;;;;;;;;5104239;27;20107;-61
2021/10/10 12:13:36;;;;;;;4.38;3.97;;;;;;;;;;5107199;27;20039;-61
2021/10/10 12:16:04;;;;;;;4.45;3.78;;;;;;;;;;5109715;27;20039;-61
2021/10/10 12:18:31;;;;;;;3.80;2.95;;;;;;;;;;5116900;27;20035;-61
2021/10/10 12:21:20;;;;;;;4.78;4.10;;;;;;;;;;5110844;27;20106;-61
2021/10/10 12:23:45;;;;;;;4.10;3.05;;;;;;;;;;5110885;27;20449;-61
2021/10/10 12:26:13;;;;;;;6.70;3.65;;;;;;;;;;5113406;27;20034;-61
2021/10/10 12:28:38;;;;;;;5.25;3.72;;;;;;;;;;5109749;27;20110;-61
2021/10/10 12:31:05;;;;;;;5.20;3.85;;;;;;;;;;5117397;27;20150;-61
2021/10/10 12:33:42;;;;;;;4.57;3.50;;;;;;;;;;5114225;27;20046;-61
2021/10/10 12:36:13;;;;;;;6.93;3.95;;;;;;;;;;5109792;27;20031;-61
2021/10/10 12:38:49;;;;;;;4.72;3.05;;;;;;;;;;5097935;27;20024;-62
2021/10/10 12:41:20;;;;;;;6.30;4.15;;;;;;;;;;5119432;27;20109;-62
2021/10/10 12:43:47;;;;;;;5.60;4.20;;;;;;;;;;5109033;27;20031;-61
2021/10/10 12:46:13;;;;;;;4.22;3.38;;;;;;;;;;5098436;27;20697;-61
2021/10/10 12:48:39;;;;;;;4.97;3.97;;;;;;;;;;5096714;27;20043;-61
2021/10/10 12:51:14;;;;;;;5.75;3.53;;;;;;;;;;5106358;27;20019;-61
2021/10/10 12:53:39;;;;;;;6.28;5.00;;;;;;;;;;5111240;27;20103;-61
2021/10/10 12:56:11;;;;;;;6.22;4.35;;;;;;;;;;5110038;27;20066;-61
2021/10/10 12:58:53;;;;;;;4.18;3.53;;;;;;;;;;5114248;27;20034;-61
2021/10/10 13:01:22;;;;;;;5.28;4.15;;;;;;;;;;5092397;27;20070;-61
2021/10/10 13:03:47;;;;;;;4.72;3.88;;;;;;;;;;5107034;27;20721;-61
2021/10/10 13:06:13;;;;;;;4.28;3.65;;;;;;;;;;5107911;27;20537;-61
2021/10/10 13:08:49;;;;;;;5.15;3.88;;;;;;;;;;5104674;27;20031;-61
2021/10/10 13:11:16;;;;;;;5.18;4.22;;;;;;;;;;5111879;27;20567;-61
2021/10/10 13:13:42;;;;;;;6.90;3.55;;;;;;;;;;5110980;27;20099;-61
2021/10/10 13:16:07;;;;;;;3.92;2.95;;;;;;;;;;5090324;27;20130;-61
2021/10/10 13:18:33;;;;;;;5.05;2.88;;;;;;;;;;5102550;28;20031;-61
2021/10/10 13:20:58;;;;;;;4.55;3.40;;;;;;;;;;5109569;27;20040;-61
2021/10/10 13:23:24;;;;;;;7.07;3.53;;;;;;;;;;5106491;27;20031;-61
2021/10/10 13:25:49;;;;;;;6.20;4.47;;;;;;;;;;5114355;27;20023;-61
2021/10/10 13:28:15;;;;;;;4.13;3.08;;;;;;;;;;5116752;27;20059;-61
2021/10/10 13:30:43;;;;;;;4.32;3.38;;;;;;;;;;5109937;27;20038;-61
2021/10/10 13:33:08;;;;;;;3.90;2.90;;;;;;;;;;5113049;27;20517;-61
2021/10/10 13:35:34;;;;;;;4.07;3.28;;;;;;;;;;5113274;27;20051;-60
2021/10/10 13:37:59;;;;;;;7.35;4.60;;;;;;;;;;5097811;27;20123;-61
2021/10/10 13:40:24;;;;;;;4.38;3.50;;;;;;;;;;5113597;27;20028;-61
2021/10/10 13:42:50;;;;;;;3.70;3.05;;;;;;;;;;5112405;27;20044;-61
2021/10/10 13:45:15;;;;;;;6.90;3.42;;;;;;;;;;5113226;27;20070;-61
2021/10/10 13:47:40;;;;;;;4.90;3.45;;;;;;;;;;5113103;27;20031;-62
2021/10/10 13:50:06;;;;;;;8.85;4.28;;;;;;;;;;5109032;27;20055;-61
2021/10/10 13:52:34;;;;;;;8.05;3.70;;;;;;;;;;5112427;27;20032;-61
2021/10/10 13:54:59;;;;;;;4.07;3.30;;;;;;;;;;5109187;27;20028;-61
2021/10/10 13:57:25;;;;;;;4.32;3.30;;;;;;;;;;5094532;27;20337;-61
2021/10/10 13:59:50;;;;;;;4.05;3.42;;;;;;;;;;5092859;27;20027;-61
2021/10/10 14:02:16;;;;;;;4.32;3.25;;;;;;;;;;5108181;27;20426;-62
2021/10/10 14:04:43;;;;;;;4.80;3.50;;;;;;;;;;5105972;27;20114;-61
2021/10/10 14:07:09;;;;;;;5.18;3.35;;;;;;;;;;5103622;27;20031;-60
2021/10/10 14:09:34;;;;;;;4.15;3.30;;;;;;;;;;5109764;27;20089;-61
2021/10/10 14:12:00;;;;;;;7.22;3.70;;;;;;;;;;5109005;27;20473;-61
2021/10/10 14:14:25;;;;;;;3.60;2.90;;;;;;;;;;5108326;27;20031;-61
2021/10/10 14:16:51;;;;;;;3.88;3.35;;;;;;;;;;5106132;27;20031;-60
2021/10/10 14:19:16;;;;;;;5.32;3.83;;;;;;;;;;5105072;27;20495;-61
2021/10/10 14:21:41;;;;;;;4.10;2.92;;;;;;;;;;5109753;27;20077;-61
2021/10/10 14:24:07;;;;;;;3.92;2.88;;;;;;;;;;5109870;27;20368;-60
2021/10/10 14:26:32;;;;;;;3.92;2.97;;;;;;;;;;5110472;27;20043;-60
2021/10/10 14:28:57;;;;;;;4.15;3.47;;;;;;;;;;5106844;27;20039;-60
2021/10/10 14:31:23;;;;;;;4.07;3.10;;;;;;;;;;5107783;27;20042;-60
2021/10/10 14:33:48;;;;;;;5.45;3.60;;;;;;;;;;5109891;27;20082;-60
2021/10/10 14:36:16;;;;;;;4.60;3.55;;;;;;;;;;5106729;27;20031;-60
2021/10/10 14:38:42;;;;;;;4.25;3.22;;;;;;;;;;5108397;27;20043;-60
2021/10/10 14:41:20;;;;;;;4.53;3.25;;;;;;;;;;5112574;27;20032;-60
2021/10/10 14:44:00;;;;;;;12.50;4.35;;;;;;;;;;5108514;27;20028;-60
2021/10/10 14:46:26;;;;;;;6.43;3.42;;;;;;;;;;5111235;27;20045;-60
2021/10/10 14:48:51;;;;;;;6.93;3.53;;;;;;;;;;5113160;27;20043;-60
2021/10/10 14:51:17;;;;;;;4.03;3.53;;;;;;;;;;5095100;28;20092;-61
2021/10/10 14:53:42;;;;;;;4.50;3.60;;;;;;;;;;5105050;27;20077;-60
2021/10/10 14:56:08;;;;;;;3.30;2.80;;;;;;;;;;5104304;27;20048;-61